Terminal Aerodrome Forecast
Issued by NWS Oklahoma City, OK

Home | Current Version | Previous Version | Text Only | Print | Product List | Glossary On
Versions: 1 2 3 4 5 6 7 8 9 10 11 12 13 14
000
FTUS44 KOUN 281124
TAFOUN
TAF
KOUN 281124Z 2812/2912 36008KT P6SM SCT025 BKN100
      TEMPO 2812/2816 -RA
     FM282100 06007KT P6SM SCT100 BKN250=

USA.gov is the U.S. government's official web portal to all federal, state and local government web resources and services.